Time;durP1;ratioP1;P1;durP2;ratioP2;P2;SDS_P1;SDS_P2;PMS_P1;PMS_P2;Temp;Humidity;BMP_temperature;BMP_pressure;BME280_temperature;BME280_humidity;BME280_pressure;Samples;Min_cycle;Max_cycle;Signal;HPM_P1;HPM_P2
2022/05/16 00:02:01;;;;;;;;;4.75;4.75;;;;;;;;5059855;28;45517;-65
2022/05/16 00:04:26;;;;;;;;;7.25;7.25;;;;;;;;5061531;28;45444;-65
2022/05/16 00:06:51;;;;;;;;;12.00;9.25;;;;;;;;5062347;28;45430;-65
2022/05/16 00:09:17;;;;;;;;;12.50;8.75;;;;;;;;5059843;28;45484;-66
2022/05/16 00:11:42;;;;;;;;;10.50;9.25;;;;;;;;5060278;28;47145;-65
2022/05/16 00:14:07;;;;;;;;;9.50;8.50;;;;;;;;5056541;28;45320;-65
2022/05/16 00:16:33;;;;;;;;;9.00;8.25;;;;;;;;5059608;28;45382;-65
2022/05/16 00:18:58;;;;;;;;;4.75;4.50;;;;;;;;5057817;27;45427;-65
2022/05/16 00:21:23;;;;;;;;;6.75;6.00;;;;;;;;5060041;27;46139;-65
2022/05/16 00:23:48;;;;;;;;;6.50;6.50;;;;;;;;5051016;28;45620;-66
2022/05/16 00:26:14;;;;;;;;;5.00;3.75;;;;;;;;5039808;28;45410;-66
2022/05/16 00:28:39;;;;;;;;;4.50;4.00;;;;;;;;5061295;28;45308;-66
2022/05/16 00:31:04;;;;;;;;;4.00;3.25;;;;;;;;5058637;28;45690;-65
2022/05/16 00:33:30;;;;;;;;;5.75;4.75;;;;;;;;5060206;28;45442;-66
2022/05/16 00:35:55;;;;;;;;;5.75;5.50;;;;;;;;5041086;28;45710;-66
2022/05/16 00:38:20;;;;;;;;;6.25;5.75;;;;;;;;5049331;28;45407;-66
2022/05/16 00:40:45;;;;;;;;;6.25;4.00;;;;;;;;5059748;27;46950;-65
2022/05/16 00:43:11;;;;;;;;;4.00;4.00;;;;;;;;5066854;27;45450;-65
2022/05/16 00:45:37;;;;;;;;;4.00;4.00;;;;;;;;5058582;28;45491;-65
2022/05/16 00:48:03;;;;;;;;;4.00;4.00;;;;;;;;5060653;28;45313;-66
2022/05/16 00:50:30;;;;;;;;;7.00;6.25;;;;;;;;5056068;28;46938;-66
2022/05/16 00:52:56;;;;;;;;;3.50;3.50;;;;;;;;5057148;28;45833;-65
2022/05/16 00:55:24;;;;;;;;;3.75;3.00;;;;;;;;5061737;28;45458;-66
2022/05/16 00:57:53;;;;;;;;;3.25;3.25;;;;;;;;5058507;28;45458;-65
2022/05/16 01:00:20;;;;;;;;;4.50;4.50;;;;;;;;5064538;28;46135;-66
2022/05/16 01:05:31;;;;;;;;;6.00;5.00;;;;;;;;5057120;28;45330;-65
2022/05/16 01:08:04;;;;;;;;;6.50;6.50;;;;;;;;5056403;28;45530;-66
2022/05/16 01:10:29;;;;;;;;;7.50;6.50;;;;;;;;5059053;28;46346;-65
2022/05/16 01:12:55;;;;;;;;;6.25;6.25;;;;;;;;5056844;28;45328;-65
2022/05/16 01:15:29;;;;;;;;;5.00;5.00;;;;;;;;5059876;28;45450;-65
2022/05/16 01:17:54;;;;;;;;;4.75;4.00;;;;;;;;5058667;28;45447;-65
2022/05/16 01:20:19;;;;;;;;;4.25;4.25;;;;;;;;5056074;28;46140;-65
2022/05/16 01:22:46;;;;;;;;;4.25;4.25;;;;;;;;5058944;28;45403;-65
2022/05/16 01:25:13;;;;;;;;;5.25;4.75;;;;;;;;5057721;28;45314;-66
2022/05/16 01:27:47;;;;;;;;;7.00;5.50;;;;;;;;5058921;28;45412;-65
2022/05/16 01:30:14;;;;;;;;;11.00;5.00;;;;;;;;5060746;28;46197;-65
2022/05/16 01:32:39;;;;;;;;;3.75;3.00;;;;;;;;5051379;27;45559;-65
2022/05/16 01:35:05;;;;;;;;;7.25;5.75;;;;;;;;5058069;28;45340;-65
2022/05/16 01:40:13;;;;;;;;;4.25;4.25;;;;;;;;5066263;27;45805;-65
2022/05/16 01:42:39;;;;;;;;;7.25;6.25;;;;;;;;5066721;28;47598;-65
2022/05/16 01:45:04;;;;;;;;;7.00;7.00;;;;;;;;5048919;28;45485;-65
2022/05/16 01:47:32;;;;;;;;;5.75;5.75;;;;;;;;5063403;28;45475;-65
2022/05/16 01:49:58;;;;;;;;;3.75;3.75;;;;;;;;5056426;28;47024;-65
2022/05/16 01:52:23;;;;;;;;;6.75;6.00;;;;;;;;5071866;28;45656;-65
2022/05/16 01:54:48;;;;;;;;;4.00;3.00;;;;;;;;5061171;28;45510;-65
2022/05/16 01:57:13;;;;;;;;;5.75;5.75;;;;;;;;5062957;28;45491;-65
2022/05/16 01:59:39;;;;;;;;;4.25;4.25;;;;;;;;5059033;28;46291;-65
2022/05/16 02:02:04;;;;;;;;;5.75;5.75;;;;;;;;5054409;28;45419;-65
2022/05/16 02:04:29;;;;;;;;;9.50;6.00;;;;;;;;5070520;27;45339;-68
2022/05/16 02:06:54;;;;;;;;;7.75;5.50;;;;;;;;5067912;27;45357;-66
2022/05/16 02:09:19;;;;;;;;;8.00;6.50;;;;;;;;5063686;27;45504;-65
2022/05/16 02:11:45;;;;;;;;;5.50;5.00;;;;;;;;5056102;28;45400;-65
2022/05/16 02:14:10;;;;;;;;;5.50;5.50;;;;;;;;5058907;28;45500;-66
2022/05/16 02:16:35;;;;;;;;;7.25;7.00;;;;;;;;5059717;28;45478;-65
2022/05/16 02:19:00;;;;;;;;;8.75;8.75;;;;;;;;5056140;28;45956;-65
2022/05/16 02:27:08;;;;;;;;;9.00;6.00;;;;;;;;5043004;28;45531;-65
2022/05/16 02:29:34;;;;;;;;;6.00;6.00;;;;;;;;5057214;27;45526;-65
2022/05/16 02:32:00;;;;;;;;;7.25;6.00;;;;;;;;5055582;28;45442;-65
2022/05/16 02:34:25;;;;;;;;;8.00;6.00;;;;;;;;5060120;28;45474;-65
2022/05/16 02:36:52;;;;;;;;;7.75;7.00;;;;;;;;5059733;28;45364;-65
2022/05/16 02:39:17;;;;;;;;;8.75;8.00;;;;;;;;5060756;28;46379;-65
2022/05/16 02:41:43;;;;;;;;;8.50;8.50;;;;;;;;5061124;28;45493;-65
2022/05/16 02:44:08;;;;;;;;;8.25;7.75;;;;;;;;5058145;28;45717;-65
2022/05/16 02:46:33;;;;;;;;;6.25;6.25;;;;;;;;5063086;28;46008;-65
2022/05/16 02:48:58;;;;;;;;;8.75;7.75;;;;;;;;5060613;27;46851;-65
2022/05/16 02:51:24;;;;;;;;;8.00;7.50;;;;;;;;5065921;27;45528;-65
2022/05/16 02:53:49;;;;;;;;;8.00;8.00;;;;;;;;5071143;28;45536;-65
2022/05/16 02:56:15;;;;;;;;;9.75;8.75;;;;;;;;5056049;28;45566;-65
2022/05/16 02:58:40;;;;;;;;;7.25;6.50;;;;;;;;5062115;27;46106;-65
2022/05/16 03:01:06;;;;;;;;;9.00;8.00;;;;;;;;5071199;27;45590;-65
2022/05/16 03:03:32;;;;;;;;;8.75;8.75;;;;;;;;5068385;28;45443;-65
2022/05/16 03:05:57;;;;;;;;;8.00;8.00;;;;;;;;5070043;28;45579;-65
2022/05/16 03:08:23;;;;;;;;;10.50;9.25;;;;;;;;5056893;28;46106;-64
2022/05/16 03:10:48;;;;;;;;;11.25;11.00;;;;;;;;5060385;27;45352;-65
2022/05/16 03:13:13;;;;;;;;;14.25;11.75;;;;;;;;5066640;28;45238;-65
2022/05/16 03:15:39;;;;;;;;;13.75;13.25;;;;;;;;5045777;28;45428;-67
2022/05/16 03:18:05;;;;;;;;;11.00;10.50;;;;;;;;5060165;28;45496;-66
2022/05/16 03:20:30;;;;;;;;;12.00;10.50;;;;;;;;5058365;27;45510;-65
2022/05/16 03:22:55;;;;;;;;;14.50;10.50;;;;;;;;5073371;28;45393;-66
2022/05/16 03:25:20;;;;;;;;;12.25;10.75;;;;;;;;5061855;28;45547;-66
2022/05/16 03:27:46;;;;;;;;;12.50;12.50;;;;;;;;5058648;28;46222;-65
2022/05/16 03:30:11;;;;;;;;;11.50;11.50;;;;;;;;5062712;28;45530;-66
2022/05/16 03:32:37;;;;;;;;;12.00;12.00;;;;;;;;5071429;28;45311;-66
2022/05/16 03:35:02;;;;;;;;;14.75;13.50;;;;;;;;5056889;28;45487;-66
2022/05/16 03:37:28;;;;;;;;;10.50;9.25;;;;;;;;5071031;27;46294;-66
2022/05/16 03:42:36;;;;;;;;;18.50;16.50;;;;;;;;5056024;27;45601;-66
2022/05/16 03:45:04;;;;;;;;;16.50;12.25;;;;;;;;5059887;28;45260;-66
2022/05/16 03:47:29;;;;;;;;;13.50;11.50;;;;;;;;5057654;28;45571;-66
2022/05/16 03:49:54;;;;;;;;;15.25;13.25;;;;;;;;5054610;28;46379;-66
2022/05/16 03:52:21;;;;;;;;;17.75;14.50;;;;;;;;5062059;28;45571;-66
2022/05/16 03:54:46;;;;;;;;;17.50;14.25;;;;;;;;5067829;28;45505;-65
2022/05/16 03:57:11;;;;;;;;;13.75;11.50;;;;;;;;5066041;28;46052;-66
2022/05/16 03:59:36;;;;;;;;;12.00;10.25;;;;;;;;5058793;28;45416;-65
2022/05/16 04:02:02;;;;;;;;;15.00;15.00;;;;;;;;5071001;28;45293;-66
2022/05/16 04:04:27;;;;;;;;;14.00;14.00;;;;;;;;5042970;28;45359;-65
2022/05/16 04:06:52;;;;;;;;;14.50;13.00;;;;;;;;5058856;28;45439;-65
2022/05/16 04:09:18;;;;;;;;;14.75;14.00;;;;;;;;5060438;28;45477;-65
2022/05/16 04:11:43;;;;;;;;;14.75;13.50;;;;;;;;5058207;28;45606;-66
2022/05/16 04:14:08;;;;;;;;;15.00;15.00;;;;;;;;5054836;28;45743;-65
2022/05/16 04:16:34;;;;;;;;;12.75;12.00;;;;;;;;5075429;27;46065;-65
2022/05/16 04:18:59;;;;;;;;;12.75;12.75;;;;;;;;5058948;28;45586;-66
2022/05/16 04:21:24;;;;;;;;;17.75;13.75;;;;;;;;5058821;27;45601;-65
2022/05/16 04:23:50;;;;;;;;;18.50;18.50;;;;;;;;5059399;28;45409;-65
2022/05/16 04:26:16;;;;;;;;;18.25;16.00;;;;;;;;5056126;28;47207;-65
2022/05/16 04:28:41;;;;;;;;;14.75;12.75;;;;;;;;5061370;27;45410;-65
2022/05/16 04:31:06;;;;;;;;;20.75;17.00;;;;;;;;5068231;28;45287;-65
2022/05/16 04:33:33;;;;;;;;;16.25;13.75;;;;;;;;5063583;28;45451;-65
2022/05/16 04:35:59;;;;;;;;;16.50;16.50;;;;;;;;5058502;28;45610;-65
2022/05/16 04:38:24;;;;;;;;;20.25;17.75;;;;;;;;5064061;28;45597;-65
2022/05/16 04:43:33;;;;;;;;;16.00;16.00;;;;;;;;5060134;28;45431;-65
2022/05/16 04:46:03;;;;;;;;;13.50;12.75;;;;;;;;5058053;28;46128;-65
2022/05/16 04:48:28;;;;;;;;;16.25;16.25;;;;;;;;5051476;28;45414;-66
2022/05/16 04:50:53;;;;;;;;;18.25;15.75;;;;;;;;5058238;27;45236;-65
2022/05/16 04:53:18;;;;;;;;;19.50;18.25;;;;;;;;5054951;28;45490;-65
2022/05/16 04:55:44;;;;;;;;;19.00;18.00;;;;;;;;5062711;27;47017;-65
2022/05/16 04:58:09;;;;;;;;;14.00;14.00;;;;;;;;5058101;28;45404;-67
2022/05/16 05:00:34;;;;;;;;;17.75;16.25;;;;;;;;5058314;28;45409;-66
2022/05/16 05:02:59;;;;;;;;;14.50;14.50;;;;;;;;5062947;28;45302;-66
2022/05/16 05:05:25;;;;;;;;;18.75;18.25;;;;;;;;5054798;28;45973;-65
2022/05/16 05:07:50;;;;;;;;;17.00;15.25;;;;;;;;5070045;28;45429;-66
2022/05/16 05:15:45;;;;;;;;;20.00;15.75;;;;;;;;5057670;28;45495;-66
2022/05/16 05:18:10;;;;;;;;;22.25;18.00;;;;;;;;5051803;28;45389;-65
2022/05/16 05:20:36;;;;;;;;;16.00;14.75;;;;;;;;5049068;28;45326;-67
2022/05/16 05:23:02;;;;;;;;;20.75;17.00;;;;;;;;5046226;28;45452;-64
2022/05/16 05:25:28;;;;;;;;;17.50;17.50;;;;;;;;5060411;27;47170;-65
2022/05/16 05:27:53;;;;;;;;;24.25;22.75;;;;;;;;5042385;28;45365;-65
2022/05/16 05:30:20;;;;;;;;;18.25;16.25;;;;;;;;5051131;28;45311;-66
2022/05/16 05:32:47;;;;;;;;;21.25;20.25;;;;;;;;5050346;27;45597;-67
2022/05/16 05:35:13;;;;;;;;;29.75;26.75;;;;;;;;5046874;28;45494;-66
2022/05/16 05:37:38;;;;;;;;;23.25;23.25;;;;;;;;5060003;28;45498;-65
2022/05/16 05:40:04;;;;;;;;;20.25;17.50;;;;;;;;5063474;28;45680;-65
2022/05/16 05:42:30;;;;;;;;;21.00;17.75;;;;;;;;5057279;28;45389;-66
2022/05/16 05:44:55;;;;;;;;;23.75;20.00;;;;;;;;5051869;28;46215;-65
2022/05/16 05:47:20;;;;;;;;;22.75;20.50;;;;;;;;5029302;28;45482;-66
2022/05/16 05:49:46;;;;;;;;;18.25;15.00;;;;;;;;5047395;28;45316;-66
2022/05/16 05:52:11;;;;;;;;;20.00;18.50;;;;;;;;5050236;28;45514;-67
2022/05/16 05:54:37;;;;;;;;;19.25;17.75;;;;;;;;5049620;28;46918;-69
2022/05/16 05:57:02;;;;;;;;;19.75;18.25;;;;;;;;5043611;28;45395;-69
2022/05/16 05:59:28;;;;;;;;;16.00;15.50;;;;;;;;5041803;28;45569;-68
2022/05/16 06:01:54;;;;;;;;;19.00;19.00;;;;;;;;5053757;28;45357;-68
2022/05/16 06:04:20;;;;;;;;;14.25;14.25;;;;;;;;5043625;28;46186;-67
2022/05/16 06:06:46;;;;;;;;;15.75;15.75;;;;;;;;5046967;28;45494;-66
2022/05/16 06:09:12;;;;;;;;;17.75;16.50;;;;;;;;5054196;28;45475;-67
2022/05/16 06:11:37;;;;;;;;;18.50;13.50;;;;;;;;5043480;28;45649;-66
2022/05/16 06:14:02;;;;;;;;;22.75;21.00;;;;;;;;5041157;28;46226;-67
2022/05/16 06:16:28;;;;;;;;;21.75;18.00;;;;;;;;5048775;27;45487;-67
2022/05/16 06:18:53;;;;;;;;;15.75;15.25;;;;;;;;5041831;28;45435;-66
2022/05/16 06:21:18;;;;;;;;;21.50;18.75;;;;;;;;5042363;28;45408;-66
2022/05/16 06:23:43;;;;;;;;;17.75;16.75;;;;;;;;5042382;28;45456;-66
2022/05/16 06:26:08;;;;;;;;;13.75;12.75;;;;;;;;5042603;28;45566;-66
2022/05/16 06:28:37;;;;;;;;;27.25;20.75;;;;;;;;5044173;28;45631;-66
2022/05/16 06:31:02;;;;;;;;;16.25;14.25;;;;;;;;5048508;28;45472;-68
2022/05/16 06:33:28;;;;;;;;;22.50;19.50;;;;;;;;5045792;28;45590;-67
2022/05/16 06:35:54;;;;;;;;;15.50;15.50;;;;;;;;5046462;28;45514;-66
2022/05/16 06:38:20;;;;;;;;;18.00;16.75;;;;;;;;5047491;28;45471;-69
2022/05/16 06:40:46;;;;;;;;;15.00;10.25;;;;;;;;5042735;28;45956;-67
2022/05/16 06:43:12;;;;;;;;;15.25;15.00;;;;;;;;5042540;28;48068;-66
2022/05/16 06:45:37;;;;;;;;;15.50;14.50;;;;;;;;5044910;28;45256;-66
2022/05/16 06:48:04;;;;;;;;;18.00;15.00;;;;;;;;5045541;28;46157;-66
2022/05/16 06:50:30;;;;;;;;;27.25;24.25;;;;;;;;5041467;28;45558;-66
2022/05/16 06:52:55;;;;;;;;;21.00;16.75;;;;;;;;5042204;28;48586;-66
2022/05/16 06:55:21;;;;;;;;;22.25;16.25;;;;;;;;5041538;28;45523;-66
2022/05/16 06:57:46;;;;;;;;;19.00;17.00;;;;;;;;5040359;28;45524;-67
2022/05/16 07:00:12;;;;;;;;;11.25;11.25;;;;;;;;5049382;28;45331;-67
2022/05/16 07:02:37;;;;;;;;;17.75;17.00;;;;;;;;5046337;28;45463;-67
2022/05/16 07:05:03;;;;;;;;;16.75;15.50;;;;;;;;5050225;28;45626;-67
2022/05/16 07:07:28;;;;;;;;;12.50;10.50;;;;;;;;5037309;28;45205;-66
2022/05/16 07:09:53;;;;;;;;;12.75;11.50;;;;;;;;5047359;28;45693;-66
2022/05/16 07:12:19;;;;;;;;;16.75;13.50;;;;;;;;5047135;28;46990;-63
2022/05/16 07:14:45;;;;;;;;;14.50;10.50;;;;;;;;5049601;28;45506;-66
2022/05/16 07:17:10;;;;;;;;;13.00;11.50;;;;;;;;5050736;28;45324;-67
2022/05/16 07:19:36;;;;;;;;;13.00;12.00;;;;;;;;5048501;28;45509;-66
2022/05/16 07:22:11;;;;;;;;;13.25;11.75;;;;;;;;5054321;28;46539;-65
2022/05/16 07:24:39;;;;;;;;;16.50;13.75;;;;;;;;5057633;28;45657;-65
2022/05/16 07:29:48;;;;;;;;;16.00;12.50;;;;;;;;5058767;28;45530;-66
2022/05/16 07:32:13;;;;;;;;;12.75;11.00;;;;;;;;5054504;28;46102;-66
2022/05/16 07:34:41;;;;;;;;;13.75;13.75;;;;;;;;5060671;27;45511;-65
2022/05/16 07:37:08;;;;;;;;;10.00;9.50;;;;;;;;5058497;28;45509;-66
2022/05/16 07:39:35;;;;;;;;;17.50;12.00;;;;;;;;5058122;27;45476;-66
2022/05/16 07:42:00;;;;;;;;;8.25;7.25;;;;;;;;5058820;28;47172;-65
2022/05/16 07:44:25;;;;;;;;;14.00;12.75;;;;;;;;5056145;28;45475;-66
2022/05/16 07:46:50;;;;;;;;;12.50;11.50;;;;;;;;5058089;27;45399;-66
2022/05/16 07:49:17;;;;;;;;;12.00;11.00;;;;;;;;5059367;27;45432;-65
2022/05/16 07:51:42;;;;;;;;;15.25;12.50;;;;;;;;5058255;28;45391;-66
2022/05/16 07:54:08;;;;;;;;;16.00;12.00;;;;;;;;5040510;28;45379;-65
2022/05/16 07:56:34;;;;;;;;;12.00;11.00;;;;;;;;5056877;28;45461;-65
2022/05/16 07:58:59;;;;;;;;;9.75;9.75;;;;;;;;5055493;28;45207;-65
2022/05/16 08:01:24;;;;;;;;;8.75;8.75;;;;;;;;5060176;28;46109;-66
2022/05/16 08:03:50;;;;;;;;;10.50;9.50;;;;;;;;5058451;28;45195;-66
2022/05/16 08:06:15;;;;;;;;;13.75;10.00;;;;;;;;5058755;28;45454;-64
2022/05/16 08:11:24;;;;;;;;;12.00;9.00;;;;;;;;5040453;28;45494;-66
2022/05/16 08:13:49;;;;;;;;;11.00;11.00;;;;;;;;5058214;28;45304;-66
2022/05/16 08:16:14;;;;;;;;;9.75;9.75;;;;;;;;5059043;28;45174;-66
2022/05/16 08:18:40;;;;;;;;;10.75;10.75;;;;;;;;5058244;28;45386;-66
2022/05/16 08:21:07;;;;;;;;;10.50;10.25;;;;;;;;5058055;28;46275;-66
2022/05/16 08:23:34;;;;;;;;;8.75;8.75;;;;;;;;5056091;28;45490;-66
2022/05/16 08:26:01;;;;;;;;;14.00;9.25;;;;;;;;5055455;28;45546;-66
2022/05/16 08:28:26;;;;;;;;;11.75;10.25;;;;;;;;5059815;28;45434;-66
2022/05/16 08:30:51;;;;;;;;;13.50;10.25;;;;;;;;5057669;28;47459;-66
2022/05/16 08:33:17;;;;;;;;;9.75;7.75;;;;;;;;5057503;28;45437;-65
2022/05/16 08:35:43;;;;;;;;;7.50;6.75;;;;;;;;5057201;28;45429;-65
2022/05/16 08:40:55;;;;;;;;;6.25;6.25;;;;;;;;5068597;27;45745;-66
2022/05/16 08:43:35;;;;;;;;;11.00;10.75;;;;;;;;5059009;28;45471;-65
2022/05/16 08:46:09;;;;;;;;;8.00;8.00;;;;;;;;5039035;28;45602;-65
2022/05/16 08:48:40;;;;;;;;;8.50;8.50;;;;;;;;5057436;28;45486;-65
2022/05/16 08:51:23;;;;;;;;;12.75;11.50;;;;;;;;5057654;28;47231;-65
2022/05/16 08:53:48;;;;;;;;;12.75;12.75;;;;;;;;5057778;28;45329;-65
2022/05/16 08:56:22;;;;;;;;;8.50;8.50;;;;;;;;5053899;28;45309;-65
2022/05/16 08:58:59;;;;;;;;;11.75;10.00;;;;;;;;5068024;27;45472;-66
2022/05/16 09:01:36;;;;;;;;;13.00;10.50;;;;;;;;5057636;28;47311;-65
2022/05/16 09:04:03;;;;;;;;;11.25;10.00;;;;;;;;5057663;28;45589;-66
2022/05/16 09:06:47;;;;;;;;;6.00;6.00;;;;;;;;5057595;28;45419;-66
2022/05/16 09:09:17;;;;;;;;;9.00;8.25;;;;;;;;5057483;28;45464;-66
2022/05/16 09:11:44;;;;;;;;;8.00;5.00;;;;;;;;5056441;28;45795;-66
2022/05/16 09:14:33;;;;;;;;;9.50;9.50;;;;;;;;5053446;28;45350;-68
2022/05/16 09:17:03;;;;;;;;;8.25;8.25;;;;;;;;5057027;27;45401;-66
2022/05/16 09:19:48;;;;;;;;;8.00;8.00;;;;;;;;5057695;28;45374;-66
2022/05/16 09:22:32;;;;;;;;;12.50;10.50;;;;;;;;5070812;28;47366;-65
2022/05/16 09:25:07;;;;;;;;;13.75;10.75;;;;;;;;5059051;28;45972;-65
2022/05/16 09:30:19;;;;;;;;;8.75;8.75;;;;;;;;5057600;28;45521;-66
2022/05/16 09:32:48;;;;;;;;;10.75;9.50;;;;;;;;5057389;28;47180;-66
2022/05/16 09:35:22;;;;;;;;;9.25;9.25;;;;;;;;5036787;28;45218;-65
2022/05/16 09:37:48;;;;;;;;;4.25;0.25;;;;;;;;5067626;27;45343;-67
2022/05/16 09:40:14;;;;;;;;;12.50;6.75;;;;;;;;5057569;28;45361;-66
2022/05/16 09:42:42;;;;;;;;;9.25;8.25;;;;;;;;5057092;28;47163;-66
2022/05/16 09:45:17;;;;;;;;;10.00;9.50;;;;;;;;5056909;28;45485;-65
2022/05/16 09:47:43;;;;;;;;;7.00;6.00;;;;;;;;5055554;28;45415;-66
2022/05/16 09:50:14;;;;;;;;;10.75;10.75;;;;;;;;5052922;28;45523;-65
2022/05/16 09:52:50;;;;;;;;;8.75;7.00;;;;;;;;5058777;28;46475;-65
2022/05/16 09:55:24;;;;;;;;;14.75;11.00;;;;;;;;5055636;28;45354;-66
2022/05/16 09:57:53;;;;;;;;;8.25;8.25;;;;;;;;5056239;28;45384;-66
2022/05/16 10:00:18;;;;;;;;;10.00;9.25;;;;;;;;5056844;28;45400;-66
2022/05/16 10:02:52;;;;;;;;;8.75;8.75;;;;;;;;5056544;27;46393;-66
2022/05/16 10:05:25;;;;;;;;;8.00;7.25;;;;;;;;5037519;28;45520;-66
2022/05/16 10:08:02;;;;;;;;;10.00;7.25;;;;;;;;5056682;28;45639;-65
2022/05/16 10:10:33;;;;;;;;;8.50;8.50;;;;;;;;5058019;28;45483;-66
2022/05/16 10:12:59;;;;;;;;;5.00;5.00;;;;;;;;5055931;28;46483;-66
2022/05/16 10:15:24;;;;;;;;;10.00;8.00;;;;;;;;5056418;28;45383;-66
2022/05/16 10:17:52;;;;;;;;;9.00;8.25;;;;;;;;5056805;28;45292;-66
2022/05/16 10:20:39;;;;;;;;;10.00;8.00;;;;;;;;5052497;28;45407;-65
2022/05/16 10:23:08;;;;;;;;;13.75;8.00;;;;;;;;5052582;28;46118;-66
2022/05/16 10:25:39;;;;;;;;;8.00;7.25;;;;;;;;5057705;28;45384;-66
2022/05/16 10:28:10;;;;;;;;;9.75;8.25;;;;;;;;5055740;28;45518;-66
2022/05/16 10:33:24;;;;;;;;;20.50;16.75;;;;;;;;5056139;28;45508;-66
2022/05/16 10:33:26;;;;;;;;;7.25;7.25;;;;;;;;5055824;28;45434;-66
2022/05/16 10:35:54;;;;;;;;;13.00;12.00;;;;;;;;5055876;28;45302;-66
2022/05/16 10:38:20;;;;;;;;;8.00;8.00;;;;;;;;5051918;28;45301;-66
2022/05/16 10:40:49;;;;;;;;;9.25;9.25;;;;;;;;5056909;28;45441;-66
2022/05/16 10:43:49;;;;;;;;;10.25;10.25;;;;;;;;5054940;28;46661;-66
2022/05/16 10:46:19;;;;;;;;;8.00;6.00;;;;;;;;4995137;28;45448;-66
2022/05/16 10:48:44;;;;;;;;;5.25;5.25;;;;;;;;4998707;28;45483;-66
2022/05/16 10:51:13;;;;;;;;;9.00;9.00;;;;;;;;5003288;28;45248;-67
2022/05/16 10:53:42;;;;;;;;;10.75;9.75;;;;;;;;4993218;28;46876;-66
2022/05/16 10:56:07;;;;;;;;;9.75;7.50;;;;;;;;4990856;28;45443;-65
2022/05/16 10:58:51;;;;;;;;;6.00;6.00;;;;;;;;4997213;28;45321;-65
2022/05/16 11:01:20;;;;;;;;;5.50;4.75;;;;;;;;4997921;28;45478;-64
2022/05/16 11:03:51;;;;;;;;;8.75;7.75;;;;;;;;4998554;28;47127;-67
2022/05/16 11:06:26;;;;;;;;;10.00;8.25;;;;;;;;4998370;28;45499;-65
2022/05/16 11:08:52;;;;;;;;;8.25;7.75;;;;;;;;4998192;28;45525;-66
2022/05/16 11:11:27;;;;;;;;;8.50;7.00;;;;;;;;4993523;28;45415;-66
2022/05/16 11:14:04;;;;;;;;;7.75;5.00;;;;;;;;4996414;28;45611;-66
2022/05/16 11:16:33;;;;;;;;;4.00;4.00;;;;;;;;4997205;28;45468;-66
2022/05/16 11:19:05;;;;;;;;;10.00;8.00;;;;;;;;4997805;28;45421;-66
2022/05/16 11:21:33;;;;;;;;;6.00;6.00;;;;;;;;5059051;28;45494;-67
2022/05/16 11:24:04;;;;;;;;;7.50;7.50;;;;;;;;5059292;28;45338;-65
2022/05/16 11:26:39;;;;;;;;;6.75;6.75;;;;;;;;5055884;28;46470;-66
2022/05/16 11:29:17;;;;;;;;;4.25;4.25;;;;;;;;5055547;28;45309;-66
2022/05/16 11:31:52;;;;;;;;;9.75;7.75;;;;;;;;5068354;27;45323;-66
2022/05/16 11:34:22;;;;;;;;;6.25;6.25;;;;;;;;5059471;28;47206;-65
2022/05/16 11:36:59;;;;;;;;;4.00;4.00;;;;;;;;5058130;28;45391;-65
2022/05/16 11:39:42;;;;;;;;;4.00;3.00;;;;;;;;5058612;28;45454;-65
2022/05/16 11:42:15;;;;;;;;;5.25;3.25;;;;;;;;5058288;28;45355;-65
2022/05/16 11:44:50;;;;;;;;;4.50;3.00;;;;;;;;5057474;28;46231;-65
2022/05/16 11:47:35;;;;;;;;;3.75;3.75;;;;;;;;5040453;28;45431;-66
2022/05/16 11:50:04;;;;;;;;;7.00;5.00;;;;;;;;5071777;27;45917;-66
2022/05/16 11:52:36;;;;;;;;;8.50;5.50;;;;;;;;5059448;28;45546;-66
2022/05/16 12:01:04;;;;;;;;;5.33;5.00;;;;;;;;5057989;28;45445;-66
2022/05/16 12:03:47;;;;;;;;;3.00;3.00;;;;;;;;5057958;28;45650;-66
2022/05/16 12:06:36;;;;;;;;;3.50;3.00;;;;;;;;5057902;28;46387;-66
2022/05/16 12:09:10;;;;;;;;;3.75;3.75;;;;;;;;5049011;28;45385;-66
2022/05/16 12:11:47;;;;;;;;;7.00;6.00;;;;;;;;5056464;28;45516;-66
2022/05/16 12:14:22;;;;;;;;;6.00;5.00;;;;;;;;5053542;28;45499;-66
2022/05/16 12:16:52;;;;;;;;;4.00;4.00;;;;;;;;5067636;27;47185;-66
2022/05/16 12:19:25;;;;;;;;;4.67;2.67;;;;;;;;5058711;28;45429;-66
2022/05/16 12:21:58;;;;;;;;;3.00;2.67;;;;;;;;5058557;28;45456;-66
2022/05/16 12:24:27;;;;;;;;;3.00;2.67;;;;;;;;5058553;28;45372;-66
2022/05/16 12:27:09;;;;;;;;;5.00;4.00;;;;;;;;5054099;28;47179;-66
2022/05/16 12:29:37;;;;;;;;;4.00;4.00;;;;;;;;5069388;28;45406;-66
2022/05/16 12:32:03;;;;;;;;;7.25;6.00;;;;;;;;5055058;28;45539;-66
2022/05/16 12:34:28;;;;;;;;;4.50;4.50;;;;;;;;5059831;28;45390;-66
2022/05/16 12:36:53;;;;;;;;;3.00;3.00;;;;;;;;5058315;28;45964;-66
2022/05/16 12:39:25;;;;;;;;;3.00;3.00;;;;;;;;5058392;28;45517;-64
2022/05/16 12:41:58;;;;;;;;;3.00;3.00;;;;;;;;5057097;28;46879;-66
2022/05/16 12:44:30;;;;;;;;;4.33;4.33;;;;;;;;5054964;28;45462;-66
2022/05/16 12:46:55;;;;;;;;;2.67;2.67;;;;;;;;5056139;27;46206;-66
2022/05/16 12:49:33;;;;;;;;;2.50;2.50;;;;;;;;5058328;28;45418;-66
2022/05/16 12:52:05;;;;;;;;;5.00;4.00;;;;;;;;5057962;27;45406;-66
2022/05/16 12:54:36;;;;;;;;;2.00;2.00;;;;;;;;5057650;28;45457;-66
2022/05/16 12:57:04;;;;;;;;;4.50;4.00;;;;;;;;5057540;27;46257;-66
2022/05/16 12:59:48;;;;;;;;;3.00;3.00;;;;;;;;5055196;28;45260;-66
2022/05/16 13:02:19;;;;;;;;;4.50;3.00;;;;;;;;5037603;28;45277;-66
2022/05/16 13:04:47;;;;;;;;;5.75;3.75;;;;;;;;5067380;28;45371;-66
2022/05/16 13:07:29;;;;;;;;;4.00;4.00;;;;;;;;5057818;28;46204;-66
2022/05/16 13:10:02;;;;;;;;;4.25;3.00;;;;;;;;5057049;28;45264;-66
2022/05/16 13:12:53;;;;;;;;;7.50;5.00;;;;;;;;5057514;28;45508;-66
2022/05/16 13:15:27;;;;;;;;;3.50;3.50;;;;;;;;4978379;28;45409;-66
2022/05/16 13:17:54;;;;;;;;;3.50;3.50;;;;;;;;4995711;28;45950;-66
2022/05/16 13:20:24;;;;;;;;;6.50;4.50;;;;;;;;4992557;28;45478;-66
2022/05/16 13:22:50;;;;;;;;;7.25;7.25;;;;;;;;4995417;28;45420;-66
2022/05/16 13:25:17;;;;;;;;;3.67;2.33;;;;;;;;4996316;28;45439;-65
2022/05/16 13:30:32;;;;;;;;;4.00;2.00;;;;;;;;4996362;28;45398;-65
2022/05/16 13:32:57;;;;;;;;;3.00;3.00;;;;;;;;4996070;28;45279;-65
2022/05/16 13:35:28;;;;;;;;;3.75;3.75;;;;;;;;4976122;28;45272;-65
2022/05/16 13:37:54;;;;;;;;;3.33;3.00;;;;;;;;4995008;28;46659;-65
2022/05/16 13:40:21;;;;;;;;;3.00;3.00;;;;;;;;4996627;28;45601;-65
2022/05/16 13:42:46;;;;;;;;;3.00;3.00;;;;;;;;4996343;28;45393;-66
2022/05/16 13:45:11;;;;;;;;;2.00;2.00;;;;;;;;4995685;28;45420;-65
2022/05/16 13:47:41;;;;;;;;;4.00;4.00;;;;;;;;4994372;28;46929;-65
2022/05/16 13:50:07;;;;;;;;;3.33;3.00;;;;;;;;4992819;28;45469;-66
2022/05/16 13:52:37;;;;;;;;;5.67;3.00;;;;;;;;5038371;28;45387;-66
2022/05/16 13:55:06;;;;;;;;;1.33;1.33;;;;;;;;5056454;28;45429;-66
2022/05/16 13:57:31;;;;;;;;;2.00;2.00;;;;;;;;5056386;28;46868;-66
2022/05/16 14:00:09;;;;;;;;;2.67;2.67;;;;;;;;5056326;28;45310;-66
2022/05/16 14:02:34;;;;;;;;;2.00;2.00;;;;;;;;5054478;28;45380;-66
2022/05/16 14:05:05;;;;;;;;;6.00;5.00;;;;;;;;5054259;28;45309;-66
2022/05/16 14:07:33;;;;;;;;;3.00;2.00;;;;;;;;5057146;28;46406;-65
2022/05/16 14:10:00;;;;;;;;;3.00;2.00;;;;;;;;5056308;28;45367;-67
2022/05/16 14:12:31;;;;;;;;;1.00;1.00;;;;;;;;5061789;27;45355;-65
2022/05/16 14:14:57;;;;;;;;;4.33;2.33;;;;;;;;5065100;27;46942;-67
2022/05/16 14:17:36;;;;;;;;;3.00;3.00;;;;;;;;5052142;28;46991;-67
2022/05/16 14:20:07;;;;;;;;;1.00;0.33;;;;;;;;5053368;28;45503;-66
2022/05/16 14:22:34;;;;;;;;;1.67;1.33;;;;;;;;5058468;28;45468;-67
2022/05/16 14:25:01;;;;;;;;;5.00;2.25;;;;;;;;5056038;28;45220;-67
2022/05/16 14:27:41;;;;;;;;;0.67;0.67;;;;;;;;5055866;28;45553;-67
2022/05/16 14:30:12;;;;;;;;;2.00;2.00;;;;;;;;5054753;28;45507;-67
2022/05/16 14:32:42;;;;;;;;;1.67;1.67;;;;;;;;5053314;28;45471;-67
2022/05/16 14:35:13;;;;;;;;;2.67;2.67;;;;;;;;5052740;28;45336;-66
2022/05/16 14:37:38;;;;;;;;;3.33;2.00;;;;;;;;5058446;28;45579;-67
2022/05/16 14:40:06;;;;;;;;;3.00;2.00;;;;;;;;5056468;27;45343;-66
2022/05/16 14:42:33;;;;;;;;;4.00;3.33;;;;;;;;5056273;28;45393;-66
2022/05/16 14:45:10;;;;;;;;;2.67;1.33;;;;;;;;5055959;28;45499;-66
2022/05/16 14:47:39;;;;;;;;;4.00;2.00;;;;;;;;5054553;28;46301;-66
2022/05/16 14:50:08;;;;;;;;;2.00;1.33;;;;;;;;5034368;28;45848;-66
2022/05/16 14:52:35;;;;;;;;;3.00;3.00;;;;;;;;5057952;28;45354;-66
2022/05/16 14:55:03;;;;;;;;;1.00;1.00;;;;;;;;5056001;28;45518;-66
2022/05/16 14:57:29;;;;;;;;;0.67;0.67;;;;;;;;5055903;28;45258;-66
2022/05/16 14:59:54;;;;;;;;;2.00;2.00;;;;;;;;5055949;28;45503;-66
2022/05/16 15:05:04;;;;;;;;;1.00;1.00;;;;;;;;5053081;28;45266;-66
2022/05/16 15:07:37;;;;;;;;;1.33;1.33;;;;;;;;5057785;28;46313;-67
2022/05/16 15:10:03;;;;;;;;;2.00;2.00;;;;;;;;5055628;28;45557;-67
2022/05/16 15:12:30;;;;;;;;;2.00;1.00;;;;;;;;5055439;28;44931;-67
2022/05/16 15:14:55;;;;;;;;;1.00;1.00;;;;;;;;5054841;28;45500;-65
2022/05/16 15:17:21;;;;;;;;;2.33;2.00;;;;;;;;5051345;28;46129;-66
2022/05/16 15:19:46;;;;;;;;;1.33;1.33;;;;;;;;5057504;28;45482;-66
2022/05/16 15:22:14;;;;;;;;;0.67;0.67;;;;;;;;5056951;28;45440;-67
2022/05/16 15:24:42;;;;;;;;;1.33;1.00;;;;;;;;5055648;28;45518;-66